createdAt,value
2023-08-06T00:01:47.933Z,84.14
2023-08-06T00:06:55.668Z,84.17
2023-08-06T00:12:03.579Z,84.18
2023-08-06T00:17:11.858Z,84.22
2023-08-06T00:22:20.112Z,84.24
2023-08-06T00:27:27.980Z,84.26
2023-08-06T00:32:35.707Z,84.28
2023-08-06T00:37:44.030Z,84.30
2023-08-06T00:42:52.465Z,84.30
2023-08-06T00:48:01.306Z,84.32
2023-08-06T00:53:09.796Z,84.34
2023-08-06T00:58:18.372Z,84.34
2023-08-06T01:03:27.601Z,84.34
2023-08-06T01:08:50.389Z,84.35
2023-08-06T01:14:02.887Z,84.32
2023-08-06T01:19:21.699Z,84.31
2023-08-06T01:24:29.751Z,84.24
2023-08-06T01:29:42.726Z,84.15
2023-08-06T01:34:52.060Z,84.01
2023-08-06T01:40:00.446Z,83.90
2023-08-06T01:45:10.393Z,83.80
2023-08-06T01:50:18.957Z,83.72
2023-08-06T01:55:27.545Z,83.67
2023-08-06T02:00:35.395Z,83.67
2023-08-06T02:05:44.584Z,83.68
2023-08-06T02:10:52.697Z,83.74
2023-08-06T02:16:00.908Z,83.79
2023-08-06T02:21:09.040Z,83.85
2023-08-06T02:26:17.387Z,83.93
2023-08-06T02:31:25.391Z,84.02
2023-08-06T02:36:33.258Z,84.17
2023-08-06T02:41:41.234Z,84.28
2023-08-06T02:46:49.427Z,84.25
2023-08-06T02:51:58.431Z,84.20
2023-08-06T02:57:07.532Z,84.17
2023-08-06T03:02:16.655Z,84.17
2023-08-06T03:07:37.787Z,84.13
2023-08-06T03:12:53.553Z,84.11
2023-08-06T03:18:03.635Z,84.09
2023-08-06T03:23:12.316Z,84.09
2023-08-06T03:28:21.099Z,84.13
2023-08-06T03:33:30.030Z,84.19
2023-08-06T03:38:41.180Z,84.27
2023-08-06T03:43:50.458Z,84.31
2023-08-06T03:49:04.541Z,84.37
2023-08-06T03:54:13.029Z,84.43
2023-08-06T03:59:21.644Z,84.50
2023-08-06T04:04:30.988Z,84.56
2023-08-06T04:09:55.108Z,84.64
2023-08-06T04:15:04.434Z,84.71
2023-08-06T04:20:14.244Z,84.83
2023-08-06T04:25:22.742Z,84.91
2023-08-06T04:30:31.845Z,84.97
2023-08-06T04:35:41.304Z,85.03
2023-08-06T04:40:49.933Z,85.09
2023-08-06T04:46:00.313Z,85.17
2023-08-06T04:51:08.625Z,85.23
2023-08-06T04:56:17.058Z,85.29
2023-08-06T05:01:25.032Z,85.37
2023-08-06T05:06:33.993Z,85.45
2023-08-06T05:11:41.876Z,85.49
2023-08-06T05:16:49.378Z,85.56
2023-08-06T05:21:57.074Z,85.62
2023-08-06T05:27:04.862Z,85.70
2023-08-06T05:32:12.873Z,85.77
2023-08-06T05:37:20.502Z,85.82
2023-08-06T05:42:27.964Z,85.88
2023-08-06T05:47:35.726Z,85.94
2023-08-06T05:52:43.634Z,86.00
2023-08-06T05:57:51.172Z,86.12
2023-08-06T06:02:58.737Z,86.25
2023-08-06T06:08:06.364Z,86.41
2023-08-06T06:13:13.709Z,86.53
2023-08-06T06:18:21.486Z,86.65
2023-08-06T06:23:28.997Z,86.75
2023-08-06T06:28:36.844Z,86.90
2023-08-06T06:33:44.370Z,86.98
2023-08-06T06:38:51.807Z,87.04
2023-08-06T06:44:00.530Z,87.13
2023-08-06T06:49:08.169Z,87.21
2023-08-06T06:54:15.908Z,87.33
2023-08-06T06:59:23.202Z,87.40
2023-08-06T07:04:30.775Z,87.38
2023-08-06T07:09:38.303Z,87.22
2023-08-06T07:14:45.703Z,87.10
2023-08-06T07:19:53.585Z,86.94
2023-08-06T07:25:01.061Z,86.74
2023-08-06T07:30:10.188Z,86.55
2023-08-06T07:35:18.759Z,86.32
2023-08-06T07:40:26.183Z,86.07
2023-08-06T07:45:38.649Z,85.91
2023-08-06T07:50:51.975Z,85.65
2023-08-06T07:56:00.954Z,85.31
2023-08-06T08:01:08.829Z,84.91
2023-08-06T08:12:49.245Z,84.49
2023-08-06T08:17:55.188Z,84.06
2023-08-06T08:23:03.154Z,83.94
2023-08-06T08:28:10.929Z,83.32
2023-08-06T08:33:18.336Z,82.92
2023-08-06T08:38:26.071Z,82.39
2023-08-06T08:43:34.680Z,82.36
2023-08-06T08:48:42.748Z,80.85
2023-08-06T08:53:53.450Z,79.83
2023-08-06T08:59:01.363Z,78.68
2023-08-06T09:04:10.668Z,77.91
2023-08-06T09:09:28.566Z,77.07
2023-08-06T09:14:35.972Z,76.40
2023-08-06T09:19:49.632Z,75.33
2023-08-06T09:24:58.801Z,74.86
2023-08-06T09:30:08.460Z,73.24
2023-08-06T09:35:20.537Z,72.23
2023-08-06T09:40:32.701Z,71.53
2023-08-06T09:45:41.052Z,70.51
2023-08-06T09:50:50.387Z,69.41
2023-08-06T09:55:59.189Z,68.65
2023-08-06T10:01:07.374Z,67.86
2023-08-06T10:06:15.040Z,65.99
2023-08-06T10:11:24.756Z,64.66
2023-08-06T10:16:33.903Z,63.83
2023-08-06T10:21:43.251Z,63.21
2023-08-06T10:26:50.725Z,62.32
2023-08-06T10:32:04.112Z,62.05
2023-08-06T10:37:14.758Z,61.11
2023-08-06T10:42:24.623Z,59.61
2023-08-06T10:47:43.809Z,60.36
2023-08-06T10:52:52.663Z,59.66
2023-08-06T10:58:00.861Z,59.78
2023-08-06T11:03:08.959Z,59.69
2023-08-06T11:08:26.034Z,59.89
2023-08-06T11:13:34.562Z,59.96
2023-08-06T11:18:42.791Z,60.09
2023-08-06T11:23:50.538Z,59.63
2023-08-06T11:28:58.001Z,59.46
2023-08-06T11:34:05.494Z,59.13
2023-08-06T11:39:14.094Z,58.85
2023-08-06T11:44:26.897Z,58.84
2023-08-06T11:49:51.024Z,58.67
2023-08-06T11:55:09.764Z,58.31
2023-08-06T12:00:21.227Z,57.29
2023-08-06T12:05:32.777Z,56.36
2023-08-06T12:10:40.787Z,56.28
2023-08-06T12:15:49.832Z,56.16
2023-08-06T12:20:58.139Z,55.92
2023-08-06T12:26:05.691Z,55.44
2023-08-06T12:31:13.106Z,54.83
2023-08-06T12:36:20.546Z,54.46
2023-08-06T12:41:28.096Z,54.26
2023-08-06T12:46:36.201Z,54.22
2023-08-06T12:51:43.661Z,54.25
2023-08-06T12:56:52.028Z,54.25
2023-08-06T13:01:59.412Z,54.35
2023-08-06T13:07:07.995Z,54.15
2023-08-06T13:12:15.394Z,53.74
2023-08-06T13:17:22.945Z,53.67
2023-08-06T13:22:30.866Z,53.89
2023-08-06T13:27:38.623Z,53.87
2023-08-06T13:32:46.690Z,53.56
2023-08-06T13:37:55.823Z,53.56
2023-08-06T13:43:03.719Z,53.16
2023-08-06T13:48:11.992Z,52.87
2023-08-06T13:53:19.540Z,52.44
2023-08-06T13:58:27.627Z,52.15
2023-08-06T14:03:35.295Z,51.91
2023-08-06T14:08:42.957Z,51.54
2023-08-06T14:13:50.471Z,51.44
2023-08-06T14:18:58.105Z,51.60
2023-08-06T14:24:06.145Z,51.40
2023-08-06T14:29:15.206Z,51.14
2023-08-06T14:34:22.585Z,51.03
2023-08-06T14:39:30.203Z,50.68
2023-08-06T14:44:37.607Z,50.64
2023-08-06T14:49:46.313Z,50.47
2023-08-06T14:54:57.035Z,50.32
2023-08-06T15:00:04.736Z,50.17
2023-08-06T15:05:12.832Z,50.15
2023-08-06T15:10:27.406Z,50.02
2023-08-06T15:15:35.744Z,49.97
2023-08-06T15:20:43.444Z,49.96
2023-08-06T15:25:51.181Z,50.01
2023-08-06T15:31:26.502Z,49.93
2023-08-06T16:10:59.868Z,50.94
2023-08-06T16:16:08.344Z,51.91
2023-08-06T16:41:34.013Z,61.04
2023-08-06T16:46:41.931Z,62.29
2023-08-06T16:51:49.500Z,63.40
2023-08-06T16:56:58.126Z,64.72
2023-08-06T17:02:06.618Z,65.57
2023-08-06T17:07:14.189Z,66.53
2023-08-06T17:12:22.550Z,67.79
2023-08-06T17:17:29.997Z,68.10
2023-08-06T17:22:38.537Z,67.75
2023-08-06T17:27:46.043Z,67.88
2023-08-06T17:32:53.726Z,68.18
2023-08-06T17:38:01.250Z,68.31
2023-08-06T17:43:09.407Z,68.58
2023-08-06T17:48:17.686Z,68.87
2023-08-06T17:53:26.019Z,69.28
2023-08-06T17:58:33.597Z,69.58
2023-08-06T18:03:41.087Z,69.74
2023-08-06T18:08:48.696Z,69.89
2023-08-06T18:13:56.192Z,70.16
2023-08-06T18:19:03.568Z,70.42
2023-08-06T18:24:10.915Z,70.28
2023-08-06T18:29:18.273Z,70.41
2023-08-06T18:34:25.716Z,70.49
2023-08-06T18:39:33.253Z,70.37
2023-08-06T18:44:40.934Z,70.40
2023-08-06T18:49:48.321Z,70.37
2023-08-06T18:54:57.355Z,70.35
2023-08-06T19:00:06.144Z,70.31
2023-08-06T19:05:14.568Z,70.30
2023-08-06T19:10:25.444Z,70.34
2023-08-06T19:15:32.855Z,70.50
2023-08-06T19:20:43.781Z,70.69
2023-08-06T19:25:51.272Z,70.79
2023-08-06T19:31:01.149Z,70.94
2023-08-06T19:36:09.046Z,70.96
2023-08-06T19:41:16.667Z,70.96
2023-08-06T19:46:24.627Z,70.77
2023-08-06T19:51:32.107Z,70.40
2023-08-06T19:56:39.667Z,70.16
2023-08-06T20:01:50.190Z,69.92
2023-08-06T20:06:58.590Z,69.78
2023-08-06T20:12:06.316Z,70.17
2023-08-06T20:17:13.847Z,70.49
2023-08-06T20:22:21.812Z,70.75
2023-08-06T20:27:29.487Z,70.52
2023-08-06T20:32:36.946Z,70.35
2023-08-06T20:37:44.863Z,70.92
2023-08-06T20:42:52.476Z,70.75
2023-08-06T20:48:00.740Z,70.60
2023-08-06T20:53:08.648Z,70.30
2023-08-06T20:58:16.175Z,69.72
2023-08-06T21:03:23.602Z,69.43
2023-08-06T21:08:31.480Z,69.74
2023-08-06T21:13:39.068Z,70.26
2023-08-06T21:18:46.613Z,70.49
2023-08-06T21:23:54.707Z,70.76
2023-08-06T21:29:02.272Z,71.02
2023-08-06T21:34:10.040Z,71.16
2023-08-06T21:39:17.843Z,71.28
2023-08-06T21:44:25.789Z,71.40
2023-08-06T21:49:33.562Z,71.44
2023-08-06T21:54:41.330Z,71.43
2023-08-06T21:59:49.421Z,71.52
2023-08-06T22:04:56.634Z,73.12
2023-08-06T22:10:04.524Z,72.67
2023-08-06T22:15:13.780Z,71.99
2023-08-06T22:20:22.368Z,71.53
2023-08-06T22:25:30.914Z,70.63
2023-08-06T22:30:38.898Z,69.66
2023-08-06T22:35:46.776Z,68.94
2023-08-06T22:40:54.162Z,68.81
2023-08-06T22:46:01.895Z,68.66
2023-08-06T22:51:09.851Z,68.50
2023-08-06T22:56:17.509Z,68.45
2023-08-06T23:01:24.952Z,68.43
2023-08-06T23:06:32.573Z,68.50
2023-08-06T23:11:40.084Z,68.56
2023-08-06T23:16:47.840Z,68.55
2023-08-06T23:21:55.817Z,68.44
2023-08-06T23:27:03.997Z,67.98
2023-08-06T23:32:12.587Z,67.64
2023-08-06T23:37:20.197Z,67.39
2023-08-06T23:42:27.962Z,67.31
2023-08-06T23:47:35.684Z,67.34
2023-08-06T23:52:43.979Z,67.28
2023-08-06T23:57:51.802Z,67.28
